Time;durP1;ratioP1;P1;durP2;ratioP2;P2;SDS_P1;SDS_P2;PMS_P1;PMS_P2;Temp;Humidity;BMP_temperature;BMP_pressure;BME280_temperature;BME280_humidity;BME280_pressure;Samples;Min_cycle;Max_cycle;Signal;HPM_P1;HPM_P2
2021/05/12 00:01:45;;;;;;;0.70;0.70;;;;;;;13.77;80.83;95051.25;5012642;28;20213;-84
2021/05/12 00:04:11;;;;;;;0.50;0.50;;;;;;;13.76;81.51;95054.03;4998778;28;20716;-84
2021/05/12 00:06:37;;;;;;;0.50;0.50;;;;;;;13.50;82.99;95047.22;4993347;28;20227;-84
2021/05/12 00:09:03;;;;;;;0.90;0.60;;;;;;;13.38;83.26;95054.06;5004968;28;20203;-83
2021/05/12 00:11:30;;;;;;;0.53;0.53;;;;;;;13.43;83.88;95049.06;5012995;28;20198;-84
2021/05/12 00:13:56;;;;;;;0.60;0.60;;;;;;;13.55;83.01;95046.59;5011927;28;20210;-83
2021/05/12 00:16:22;;;;;;;0.50;0.50;;;;;;;13.51;82.94;95040.25;5012230;28;20238;-83
2021/05/12 00:18:48;;;;;;;0.60;0.60;;;;;;;13.31;83.94;95041.16;5003635;28;20250;-84
2021/05/12 00:21:23;;;;;;;2.40;0.63;;;;;;;13.26;85.98;95043.56;4992883;28;20203;-83
2021/05/12 00:23:58;;;;;;;0.60;0.60;;;;;;;13.33;85.11;95048.69;5001191;28;20218;-84
2021/05/12 00:26:24;;;;;;;0.80;0.60;;;;;;;13.13;85.36;95035.84;5011702;28;20621;-82
2021/05/12 00:28:51;;;;;;;0.70;0.70;;;;;;;13.08;86.21;95036.44;5007769;28;20202;-80
2021/05/12 00:31:17;;;;;;;0.77;0.57;;;;;;;13.12;85.88;95029.06;5012716;28;20609;-81
2021/05/12 00:33:43;;;;;;;0.83;0.67;;;;;;;13.03;85.46;95032.91;5004334;28;20199;-82
2021/05/12 00:36:09;;;;;;;0.70;0.70;;;;;;;13.06;85.32;95037.66;4993025;28;20250;-84
2021/05/12 00:38:35;;;;;;;3.77;0.60;;;;;;;13.13;84.73;95030.66;4994100;28;20592;-84
2021/05/12 00:41:04;;;;;;;0.63;0.60;;;;;;;12.96;85.79;95030.34;4992277;28;20227;-83
2021/05/12 00:43:29;;;;;;;1.33;0.60;;;;;;;12.93;85.96;95030.75;4999870;28;20218;-85
2021/05/12 00:45:56;;;;;;;0.97;0.53;;;;;;;12.98;85.60;95032.72;5011410;28;20238;-84
2021/05/12 00:48:22;;;;;;;1.47;0.60;;;;;;;13.09;85.54;95026.91;4992559;28;20270;-84
2021/05/12 00:50:48;;;;;;;0.60;0.60;;;;;;;13.16;84.49;95032.06;4992801;28;20663;-84
2021/05/12 00:53:14;;;;;;;0.50;0.50;;;;;;;13.12;83.87;95031.66;5008625;28;20294;-84
2021/05/12 00:55:40;;;;;;;0.53;0.50;;;;;;;13.12;84.27;95024.69;5012212;28;20253;-84
2021/05/12 00:58:06;;;;;;;1.33;0.60;;;;;;;13.14;84.71;95027.06;5010403;28;20211;-84
2021/05/12 01:00:32;;;;;;;0.90;0.60;;;;;;;13.13;84.18;95023.69;5012469;28;20858;-83
2021/05/12 01:02:59;;;;;;;0.50;0.50;;;;;;;13.02;83.78;95023.56;4997917;28;20766;-82
2021/05/12 01:05:29;;;;;;;0.50;0.50;;;;;;;12.99;84.25;95014.44;4992379;28;20227;-83
2021/05/12 01:07:55;;;;;;;0.50;0.50;;;;;;;12.93;84.65;95017.81;5004610;28;20269;-84
2021/05/12 01:10:21;;;;;;;0.70;0.50;;;;;;;12.99;85.03;95014.44;5011343;28;20288;-85
2021/05/12 01:12:47;;;;;;;0.57;0.57;;;;;;;13.07;84.08;95026.34;5004171;28;20199;-83
2021/05/12 01:15:14;;;;;;;0.50;0.50;;;;;;;12.92;84.04;95023.19;5011360;28;20199;-84
2021/05/12 01:17:40;;;;;;;0.60;0.50;;;;;;;12.96;84.85;95017.41;5010316;28;20226;-84
2021/05/12 01:20:09;;;;;;;0.60;0.50;;;;;;;12.96;84.56;95016.63;5001254;28;20207;-83
2021/05/12 01:22:36;;;;;;;0.60;0.60;;;;;;;13.02;84.31;95023.56;4998848;28;20202;-83
2021/05/12 01:25:03;;;;;;;0.83;0.63;;;;;;;13.04;83.79;95021.56;5010061;28;20237;-83
2021/05/12 01:27:29;;;;;;;0.73;0.53;;;;;;;12.91;84.12;95024.19;5008913;28;20214;-83
2021/05/12 01:29:55;;;;;;;0.50;0.50;;;;;;;12.91;84.87;95030.16;5010346;28;20784;-83
2021/05/12 01:32:21;;;;;;;0.77;0.77;;;;;;;12.95;84.09;95025.38;5005889;28;20195;-83
2021/05/12 01:34:47;;;;;;;0.50;0.50;;;;;;;12.89;84.60;95031.38;4992934;28;20601;-83
2021/05/12 01:37:14;;;;;;;1.90;0.57;;;;;;;12.93;84.90;95035.91;4994062;28;20239;-84
2021/05/12 01:39:40;;;;;;;0.50;0.50;;;;;;;12.83;84.95;95034.75;5010073;28;20195;-83
2021/05/12 01:42:06;;;;;;;0.47;0.47;;;;;;;12.90;84.14;95033.72;4990851;28;20199;-83
2021/05/12 01:44:32;;;;;;;0.67;0.60;;;;;;;12.87;84.80;95035.94;4991244;28;20277;-85
2021/05/12 01:46:58;;;;;;;0.50;0.50;;;;;;;12.70;85.56;95044.13;5009578;28;20231;-84
2021/05/12 01:49:29;;;;;;;0.50;0.50;;;;;;;12.81;85.64;95045.28;5010567;28;20769;-84
2021/05/12 01:51:55;;;;;;;0.50;0.50;;;;;;;12.81;84.97;95045.28;4992418;28;20615;-83
2021/05/12 01:54:21;;;;;;;0.40;0.40;;;;;;;12.89;85.13;95052.84;4990590;28;20932;-84
2021/05/12 01:56:50;;;;;;;0.40;0.40;;;;;;;12.86;85.34;95040.31;5006608;28;20223;-84
2021/05/12 01:59:16;;;;;;;0.50;0.50;;;;;;;13.02;83.86;95039.88;5010688;28;20210;-84
2021/05/12 02:01:42;;;;;;;0.50;0.50;;;;;;;12.95;84.69;95043.47;5008922;28;20740;-84
2021/05/12 02:04:09;;;;;;;0.40;0.40;;;;;;;13.01;84.29;95048.63;4990886;28;20278;-84
2021/05/12 02:06:35;;;;;;;0.50;0.50;;;;;;;12.99;84.18;95045.44;5007601;28;20227;-83
2021/05/12 02:09:02;;;;;;;0.50;0.50;;;;;;;13.14;84.52;95040.78;5010729;28;20265;-83
2021/05/12 02:11:28;;;;;;;0.40;0.40;;;;;;;13.16;83.59;95037.25;4993245;28;20203;-85
2021/05/12 02:13:55;;;;;;;0.40;0.40;;;;;;;13.09;83.58;95038.03;5005364;28;20209;-84
2021/05/12 02:16:21;;;;;;;0.50;0.50;;;;;;;13.16;83.51;95038.03;5009745;28;20234;-84
2021/05/12 02:18:47;;;;;;;0.60;0.60;;;;;;;13.06;82.66;95038.47;5009012;28;20256;-84
2021/05/12 02:21:13;;;;;;;0.40;0.40;;;;;;;13.00;84.09;95035.88;5008120;28;20253;-83
2021/05/12 02:23:39;;;;;;;0.60;0.60;;;;;;;12.99;84.89;95042.06;5009386;28;20242;-84
2021/05/12 02:26:05;;;;;;;0.50;0.50;;;;;;;12.97;84.12;95042.25;4999401;28;20243;-83
2021/05/12 02:28:31;;;;;;;0.60;0.60;;;;;;;12.94;84.37;95034.13;4989985;28;20203;-85
2021/05/12 02:30:58;;;;;;;0.57;0.57;;;;;;;12.91;84.86;95030.16;4998410;28;20842;-84
2021/05/12 02:33:24;;;;;;;0.47;0.47;;;;;;;12.99;84.45;95036.88;5009748;28;20210;-84
2021/05/12 02:35:50;;;;;;;0.50;0.50;;;;;;;12.79;85.10;95036.94;5003268;28;20211;-84
2021/05/12 02:38:17;;;;;;;0.50;0.50;;;;;;;12.89;85.01;95027.00;4990701;28;20310;-83
2021/05/12 02:40:43;;;;;;;0.50;0.50;;;;;;;13.04;84.32;95035.28;4995492;28;20191;-85
2021/05/12 02:43:09;;;;;;;0.60;0.60;;;;;;;13.02;84.18;95037.28;5010049;28;20908;-84
2021/05/12 02:45:35;;;;;;;0.50;0.50;;;;;;;12.99;85.09;95023.97;5001215;28;20266;-84
2021/05/12 02:48:03;;;;;;;0.50;0.50;;;;;;;12.89;84.56;95021.84;4990555;28;20622;-84
2021/05/12 02:50:31;;;;;;;1.53;0.50;;;;;;;12.87;84.71;95034.16;4991449;28;20207;-84
2021/05/12 02:52:58;;;;;;;0.57;0.50;;;;;;;12.94;85.44;95034.13;4990786;28;20211;-84
2021/05/12 02:55:25;;;;;;;0.80;0.50;;;;;;;12.95;84.45;95036.50;4996544;28;20202;-84
2021/05/12 02:57:51;;;;;;;1.40;0.50;;;;;;;12.99;85.03;95039.47;5008917;28;20234;-85
2021/05/12 03:00:19;;;;;;;0.50;0.50;;;;;;;12.96;85.59;95045.03;4990813;28;20207;-84
2021/05/12 03:02:45;;;;;;;0.47;0.47;;;;;;;12.88;85.12;95040.91;4990063;28;20203;-85
2021/05/12 03:05:13;;;;;;;0.50;0.50;;;;;;;13.00;85.25;95039.28;5010014;28;20741;-84
2021/05/12 03:07:39;;;;;;;0.40;0.40;;;;;;;13.10;84.85;95046.56;5012736;28;20222;-85
2021/05/12 03:10:08;;;;;;;0.57;0.50;;;;;;;13.15;84.20;95044.22;4993840;28;20286;-85
2021/05/12 03:12:34;;;;;;;0.50;0.50;;;;;;;13.10;84.22;95046.56;4995109;28;20601;-85
2021/05/12 03:15:00;;;;;;;0.60;0.50;;;;;;;12.94;84.00;95040.06;5014619;28;20229;-85
2021/05/12 03:17:26;;;;;;;1.60;0.50;;;;;;;12.83;85.10;95040.72;5016219;28;20730;-85
2021/05/12 03:19:52;;;;;;;0.47;0.47;;;;;;;12.89;84.63;95042.50;4999409;28;20754;-84
2021/05/12 03:22:19;;;;;;;0.50;0.50;;;;;;;12.97;85.45;95033.72;4993364;28;20615;-83
2021/05/12 03:24:45;;;;;;;0.60;0.60;;;;;;;12.82;84.95;95026.22;4993903;28;20710;-83
2021/05/12 03:27:11;;;;;;;0.43;0.43;;;;;;;12.89;84.49;95041.72;4994008;28;20710;-83
2021/05/12 03:29:37;;;;;;;0.50;0.50;;;;;;;12.83;84.66;95034.75;5005595;28;20218;-84
2021/05/12 03:32:04;;;;;;;0.40;0.40;;;;;;;12.93;84.76;95038.50;5013132;28;20206;-84
2021/05/12 03:34:30;;;;;;;0.40;0.40;;;;;;;12.98;84.28;95033.50;5007719;28;20202;-84
2021/05/12 03:36:56;;;;;;;0.70;0.70;;;;;;;12.92;85.31;95041.28;5012933;28;20711;-84
2021/05/12 03:39:22;;;;;;;0.77;0.50;;;;;;;12.83;84.84;95039.94;4999506;28;20671;-85
2021/05/12 03:41:48;;;;;;;0.40;0.40;;;;;;;12.91;84.90;95039.69;4993935;28;20273;-84
2021/05/12 03:44:14;;;;;;;0.50;0.50;;;;;;;12.90;84.68;95040.69;5005281;28;20219;-84
2021/05/12 03:46:40;;;;;;;0.50;0.47;;;;;;;12.91;84.78;95043.06;5009200;28;20275;-83
2021/05/12 03:49:06;;;;;;;0.50;0.50;;;;;;;12.87;84.83;95041.13;5013135;28;20295;-84
2021/05/12 03:51:32;;;;;;;0.50;0.50;;;;;;;12.72;85.85;95043.91;5010946;28;20269;-83
2021/05/12 03:53:58;;;;;;;0.40;0.40;;;;;;;12.80;85.52;95049.66;5013403;28;20281;-84
2021/05/12 03:56:25;;;;;;;0.50;0.50;;;;;;;12.89;84.61;95050.25;5006108;28;20215;-84
2021/05/12 03:58:51;;;;;;;0.40;0.40;;;;;;;12.89;85.24;95052.03;4993701;28;20199;-84
2021/05/12 04:01:17;;;;;;;0.57;0.50;;;;;;;12.97;84.75;95049.22;4998948;28;20606;-84
2021/05/12 04:03:43;;;;;;;0.50;0.50;;;;;;;12.86;84.69;95044.69;5012865;28;20313;-85
2021/05/12 04:06:09;;;;;;;0.50;0.50;;;;;;;12.84;83.99;95044.09;5008613;28;20202;-84
2021/05/12 04:08:35;;;;;;;0.60;0.60;;;;;;;12.77;86.01;95054.44;4992493;28;20211;-84
2021/05/12 04:11:01;;;;;;;0.40;0.40;;;;;;;12.88;84.58;95055.63;4994929;28;20238;-85
2021/05/12 04:13:28;;;;;;;0.57;0.40;;;;;;;12.93;84.82;95053.19;5012304;28;20203;-83
2021/05/12 04:15:53;;;;;;;0.93;0.50;;;;;;;12.96;84.51;95056.19;5011958;28;20222;-85
2021/05/12 04:18:19;;;;;;;0.90;0.50;;;;;;;12.92;84.98;95062.75;5009974;28;20749;-84
2021/05/12 04:20:45;;;;;;;0.40;0.40;;;;;;;12.86;84.58;95053.25;5012414;28;20788;-83
2021/05/12 04:23:11;;;;;;;1.07;0.60;;;;;;;12.80;85.53;95054.84;4992803;28;20199;-84
2021/05/12 04:25:38;;;;;;;0.80;0.60;;;;;;;12.82;85.17;95064.19;4991487;28;20235;-83
2021/05/12 04:28:04;;;;;;;1.10;0.40;;;;;;;12.77;85.24;95060.41;5009602;28;20226;-84
2021/05/12 04:30:32;;;;;;;0.50;0.50;;;;;;;12.88;85.21;95059.00;5012149;28;20881;-84
2021/05/12 04:33:00;;;;;;;0.70;0.50;;;;;;;12.76;86.14;95063.97;5010817;28;20709;-85
2021/05/12 04:35:28;;;;;;;0.50;0.50;;;;;;;12.80;85.72;95056.63;5003900;28;20210;-86
2021/05/12 04:37:54;;;;;;;0.50;0.50;;;;;;;12.84;84.99;95052.66;4996119;28;20241;-83
2021/05/12 04:40:21;;;;;;;0.90;0.60;;;;;;;12.83;85.18;95056.22;5008759;28;20202;-83
2021/05/12 04:42:48;;;;;;;2.97;1.83;;;;;;;12.82;85.13;95054.63;5011096;28;20214;-85
2021/05/12 04:45:15;;;;;;;0.60;0.60;;;;;;;12.90;84.58;95053.59;5011446;28;20634;-84
2021/05/12 04:47:42;;;;;;;1.03;0.53;;;;;;;12.93;84.55;95045.44;5009218;28;20234;-84
2021/05/12 04:50:11;;;;;;;0.67;0.60;;;;;;;12.99;85.10;95048.03;5009708;28;20202;-85
2021/05/12 04:52:37;;;;;;;0.60;0.60;;;;;;;12.94;85.23;95050.41;5012090;28;20199;-85
2021/05/12 04:55:04;;;;;;;0.50;0.50;;;;;;;12.91;84.32;95050.81;5008023;28;20187;-84
2021/05/12 04:57:30;;;;;;;1.90;0.63;;;;;;;12.93;84.76;95059.16;5000868;28;20219;-83
2021/05/12 04:59:56;;;;;;;0.87;0.87;;;;;;;12.89;84.95;95062.38;4993979;28;20211;-83
2021/05/12 05:02:22;;;;;;;2.40;1.70;;;;;;;12.77;84.86;95062.97;5004457;28;20195;-84
2021/05/12 05:04:49;;;;;;;0.83;0.70;;;;;;;12.79;85.70;95061.00;5011897;28;20230;-84
2021/05/12 05:07:15;;;;;;;0.50;0.50;;;;;;;12.77;85.31;95062.97;5009517;28;20249;-84
2021/05/12 05:09:41;;;;;;;0.70;0.70;;;;;;;12.84;85.52;95057.03;5007399;28;20831;-85
2021/05/12 05:12:07;;;;;;;0.60;0.60;;;;;;;12.84;84.76;95051.84;5000343;28;20202;-83
2021/05/12 05:14:33;;;;;;;0.50;0.50;;;;;;;12.76;85.48;95051.06;5009982;28;20202;-83
2021/05/12 05:17:00;;;;;;;0.57;0.57;;;;;;;12.76;84.57;95055.44;5006385;28;20605;-85
2021/05/12 05:19:26;;;;;;;0.50;0.50;;;;;;;12.68;85.79;95059.06;5012425;28;20207;-85
2021/05/12 05:21:53;;;;;;;0.47;0.47;;;;;;;12.75;85.56;95053.84;5011501;28;20885;-86
2021/05/12 05:24:19;;;;;;;2.10;1.90;;;;;;;12.78;86.03;95064.56;5010047;28;20218;-85
2021/05/12 05:26:45;;;;;;;2.27;1.80;;;;;;;12.73;86.17;95051.47;5008732;28;20218;-86
2021/05/12 05:29:11;;;;;;;1.63;0.70;;;;;;;12.82;85.67;95054.63;5012919;28;20203;-84
2021/05/12 05:31:37;;;;;;;0.60;0.60;;;;;;;12.85;85.71;95061.97;5012435;28;20226;-85
2021/05/12 05:34:03;;;;;;;0.70;0.60;;;;;;;12.85;85.74;95059.41;5013226;28;20206;-84
2021/05/12 05:36:29;;;;;;;1.97;0.73;;;;;;;12.79;86.19;95065.38;5007198;28;20222;-84
2021/05/12 05:38:56;;;;;;;0.50;0.50;;;;;;;12.84;85.96;95055.22;5012891;28;20213;-85
2021/05/12 05:41:22;;;;;;;0.50;0.50;;;;;;;12.96;85.49;95063.13;5010274;28;20666;-85
2021/05/12 05:43:47;;;;;;;0.50;0.50;;;;;;;12.97;85.47;95057.75;4993169;28;20210;-85
2021/05/12 05:46:14;;;;;;;0.60;0.60;;;;;;;13.02;84.77;95068.28;5005004;28;20253;-85
2021/05/12 05:48:40;;;;;;;0.67;0.67;;;;;;;12.97;85.48;95068.09;5013285;28;20202;-85
2021/05/12 05:51:06;;;;;;;0.87;0.70;;;;;;;13.06;85.14;95069.47;5008876;28;20199;-86
2021/05/12 05:53:32;;;;;;;0.60;0.60;;;;;;;13.05;85.47;95067.09;5007740;28;20472;-86
2021/05/12 05:55:58;;;;;;;0.50;0.50;;;;;;;12.86;85.79;95070.53;5013208;28;20207;-86
2021/05/12 05:58:25;;;;;;;0.80;0.80;;;;;;;12.79;87.25;95068.75;5012811;28;20225;-86
2021/05/12 06:00:51;;;;;;;0.90;0.80;;;;;;;12.91;88.35;95074.06;5002617;28;20447;-85
2021/05/12 06:03:18;;;;;;;1.80;0.70;;;;;;;13.10;86.97;95078.38;4993026;28;20250;-85
2021/05/12 06:05:46;;;;;;;1.13;0.67;;;;;;;13.26;86.26;95086.72;5002073;28;20246;-84
2021/05/12 06:08:12;;;;;;;3.53;0.90;;;;;;;13.29;85.91;95079.34;5012461;28;20670;-85
2021/05/12 06:10:38;;;;;;;1.00;0.63;;;;;;;13.30;85.70;95075.75;5011508;28;20203;-85
2021/05/12 06:13:05;;;;;;;1.30;0.70;;;;;;;13.40;84.99;95077.91;5005327;28;20392;-85
2021/05/12 06:15:31;;;;;;;1.90;0.80;;;;;;;13.28;84.93;95077.75;4998163;28;20199;-85
2021/05/12 06:17:57;;;;;;;1.03;0.80;;;;;;;13.17;85.01;95078.41;5010156;28;20252;-85
2021/05/12 06:20:23;;;;;;;0.90;0.80;;;;;;;13.10;85.65;95082.75;5010847;28;20254;-85
2021/05/12 06:22:49;;;;;;;1.27;0.70;;;;;;;13.07;86.54;95080.59;5012621;28;20206;-85
2021/05/12 06:25:15;;;;;;;1.07;0.70;;;;;;;13.15;86.35;95085.56;5010764;28;20230;-85
2021/05/12 06:27:42;;;;;;;0.70;0.60;;;;;;;13.19;85.92;95075.63;5003607;28;20645;-86
2021/05/12 06:30:10;;;;;;;0.50;0.50;;;;;;;13.20;85.55;95075.41;4995374;28;20654;-84
2021/05/12 06:32:37;;;;;;;1.43;0.97;;;;;;;13.24;85.74;95071.41;4991994;28;20263;-85
2021/05/12 06:35:03;;;;;;;0.97;0.90;;;;;;;13.33;85.77;95075.34;5001537;28;20268;-84
2021/05/12 06:37:29;;;;;;;0.90;0.80;;;;;;;13.36;85.70;95079.31;5011318;28;20223;-85
2021/05/12 06:39:57;;;;;;;0.70;0.60;;;;;;;13.37;85.56;95079.13;5007745;28;20584;-85
2021/05/12 06:42:23;;;;;;;0.70;0.70;;;;;;;13.42;85.62;95074.13;5008229;28;20226;-85
2021/05/12 06:44:49;;;;;;;0.50;0.50;;;;;;;13.41;85.41;95074.31;4992404;28;20600;-85
2021/05/12 06:47:16;;;;;;;1.30;0.70;;;;;;;13.43;85.53;95069.75;4994681;28;20215;-85
2021/05/12 06:49:42;;;;;;;0.60;0.60;;;;;;;13.48;85.96;95077.66;5007122;28;20726;-85
2021/05/12 06:52:08;;;;;;;1.07;0.77;;;;;;;13.41;86.27;95072.53;4999180;28;20323;-85
2021/05/12 06:54:34;;;;;;;13.17;11.87;;;;;;;13.47;85.93;95079.44;5000591;28;20210;-85
2021/05/12 06:57:00;;;;;;;9.23;8.33;;;;;;;13.49;85.89;95077.44;5006262;28;20234;-85
2021/05/12 06:59:26;;;;;;;1.63;1.50;;;;;;;13.54;85.43;95076.84;5012983;28;20290;-86
2021/05/12 07:01:53;;;;;;;1.07;0.80;;;;;;;13.54;85.98;95073.47;5018093;28;20225;-85
2021/05/12 07:04:19;;;;;;;1.90;0.90;;;;;;;13.53;86.62;95072.66;5011772;28;20231;-85
2021/05/12 07:06:45;;;;;;;0.93;0.93;;;;;;;13.54;86.84;95076.84;5001284;28;20240;-85
2021/05/12 07:09:11;;;;;;;1.00;1.00;;;;;;;13.57;86.92;95076.44;5013684;28;20677;-86
2021/05/12 07:11:37;;;;;;;1.60;1.07;;;;;;;13.55;87.40;95067.28;5017338;28;20333;-85
2021/05/12 07:14:06;;;;;;;2.17;1.10;;;;;;;13.57;87.01;95078.22;5018897;28;20205;-85
2021/05/12 07:16:32;;;;;;;0.97;0.90;;;;;;;13.60;88.01;95073.44;5017357;28;20254;-86
2021/05/12 07:18:59;;;;;;;1.10;1.00;;;;;;;13.60;88.02;95076.03;5012293;28;20210;-85
2021/05/12 07:21:25;;;;;;;1.23;1.00;;;;;;;13.56;88.26;95074.84;5017789;28;20202;-85
2021/05/12 07:23:52;;;;;;;1.07;1.07;;;;;;;13.64;87.63;95076.41;5012678;28;20268;-86
2021/05/12 07:26:18;;;;;;;2.17;1.00;;;;;;;13.61;88.42;95069.84;5017402;28;20218;-86
2021/05/12 07:28:45;;;;;;;2.30;0.90;;;;;;;13.49;88.38;95069.69;5016766;28;20198;-86
2021/05/12 07:31:12;;;;;;;1.00;1.00;;;;;;;13.38;88.68;95074.75;5035909;28;20209;-85
2021/05/12 07:33:38;;;;;;;1.10;1.00;;;;;;;13.40;89.39;95081.28;5021311;28;20199;-85
2021/05/12 07:36:04;;;;;;;0.80;0.80;;;;;;;13.41;88.30;95076.91;5009469;28;20245;-85
2021/05/12 07:38:31;;;;;;;1.67;0.90;;;;;;;13.51;87.39;95073.88;5008443;28;20591;-84
2021/05/12 07:40:59;;;;;;;1.90;1.10;;;;;;;13.52;88.34;95072.88;4998608;28;20195;-85
2021/05/12 07:43:25;;;;;;;1.00;1.00;;;;;;;13.56;88.77;95067.09;5013336;28;20242;-86
2021/05/12 07:45:52;;;;;;;0.90;0.90;;;;;;;13.48;89.40;95067.31;5018998;28;20240;-86
2021/05/12 07:48:18;;;;;;;0.90;0.90;;;;;;;13.45;88.15;95068.53;5003945;28;20215;-85
2021/05/12 07:50:45;;;;;;;5.00;4.50;;;;;;;13.50;87.57;95070.50;4999713;28;20290;-85
2021/05/12 07:53:11;;;;;;;1.50;1.40;;;;;;;13.42;87.29;95063.78;5000734;28;20203;-84
2021/05/12 07:55:37;;;;;;;1.17;1.03;;;;;;;13.43;88.86;95067.97;4999767;28;20638;-86
2021/05/12 07:58:05;;;;;;;0.90;0.90;;;;;;;13.46;88.37;95064.97;5009602;28;20223;-85
2021/05/12 08:00:32;;;;;;;1.07;1.00;;;;;;;13.38;87.69;95062.59;5014893;28;20199;-85
2021/05/12 08:02:59;;;;;;;1.10;0.80;;;;;;;13.41;87.95;95062.19;5004790;28;20878;-85
2021/05/12 08:05:25;;;;;;;0.97;0.90;;;;;;;13.49;87.56;95061.13;4995256;28;20230;-85
2021/05/12 08:07:51;;;;;;;0.97;0.97;;;;;;;13.52;88.07;95065.13;5003568;28;20296;-85
2021/05/12 08:10:17;;;;;;;1.20;1.00;;;;;;;13.44;88.26;95072.13;5006424;28;20206;-86
2021/05/12 08:12:44;;;;;;;1.67;1.00;;;;;;;13.51;88.19;95074.66;5014889;28;20199;-85
2021/05/12 08:15:10;;;;;;;1.20;1.10;;;;;;;13.40;88.94;95070.94;5014903;28;20195;-85
2021/05/12 08:17:36;;;;;;;1.10;1.00;;;;;;;13.37;88.63;95065.38;5006552;28;20230;-85
2021/05/12 08:20:03;;;;;;;1.30;1.10;;;;;;;13.47;87.77;95070.91;4995440;28;20706;-85
2021/05/12 08:22:29;;;;;;;1.13;1.00;;;;;;;13.58;87.44;95075.44;5001262;28;20234;-85
2021/05/12 08:24:55;;;;;;;1.20;1.10;;;;;;;13.56;87.14;95072.25;5014701;28;20234;-85
2021/05/12 08:27:21;;;;;;;1.30;1.20;;;;;;;13.56;88.14;95069.66;5014186;28;20222;-85
2021/05/12 08:29:48;;;;;;;2.53;1.17;;;;;;;13.62;87.51;95068.84;5015374;28;20201;-85
2021/05/12 08:32:17;;;;;;;2.80;1.33;;;;;;;13.62;87.32;95068.84;5009569;28;20207;-86
2021/05/12 08:34:47;;;;;;;3.27;1.10;;;;;;;13.64;86.80;95063.47;4995682;28;20204;-85
2021/05/12 08:37:16;;;;;;;1.30;1.20;;;;;;;13.64;86.66;95066.06;4995663;28;20597;-83
2021/05/12 08:39:49;;;;;;;3.23;1.97;;;;;;;13.68;86.98;95072.38;4996255;28;20214;-86
2021/05/12 08:42:17;;;;;;;5.20;3.17;;;;;;;13.73;86.34;95070.75;5006427;28;20617;-86
2021/05/12 08:44:48;;;;;;;1.60;1.47;;;;;;;13.62;86.63;95063.69;5014812;28;20223;-85
2021/05/12 08:47:16;;;;;;;1.80;1.30;;;;;;;13.58;86.70;95069.47;5011725;28;20215;-86
2021/05/12 08:49:46;;;;;;;1.50;1.33;;;;;;;13.52;87.65;95058.16;5014053;28;20242;-85
2021/05/12 08:52:16;;;;;;;1.60;1.50;;;;;;;13.58;88.37;95064.28;5002901;28;20227;-84
2021/05/12 08:54:50;;;;;;;1.57;1.47;;;;;;;13.62;88.51;95058.50;4998484;28;20219;-85
2021/05/12 08:57:16;;;;;;;1.40;1.30;;;;;;;13.59;88.04;95058.13;5010718;28;20241;-85
2021/05/12 08:59:42;;;;;;;1.50;1.40;;;;;;;13.46;87.97;95061.59;5010632;28;20717;-85
2021/05/12 09:02:09;;;;;;;1.50;1.40;;;;;;;13.42;87.33;95068.97;5007576;28;20199;-85
2021/05/12 09:04:38;;;;;;;1.87;1.40;;;;;;;13.36;88.83;95058.63;4995425;28;20222;-85
2021/05/12 09:07:07;;;;;;;1.60;1.50;;;;;;;13.50;89.91;95060.16;5000647;28;20238;-86
2021/05/12 09:09:36;;;;;;;1.63;1.40;;;;;;;13.47;89.31;95058.75;5010017;28;20207;-85
2021/05/12 09:12:03;;;;;;;2.10;1.67;;;;;;;13.49;91.33;95058.56;4992916;28;20207;-85
2021/05/12 09:14:31;;;;;;;1.37;1.27;;;;;;;13.49;89.48;95053.38;4993831;28;20563;-86
2021/05/12 09:16:57;;;;;;;1.77;1.67;;;;;;;13.42;89.98;95052.66;5010008;28;20621;-85
2021/05/12 09:19:38;;;;;;;1.27;1.20;;;;;;;13.10;87.71;95065.47;5001330;28;20191;-85
2021/05/12 09:22:06;;;;;;;1.80;0.80;;;;;;;13.06;88.85;95059.13;5013850;28;20187;-85
2021/05/12 09:24:36;;;;;;;0.90;0.90;;;;;;;13.12;89.64;95054.91;5012996;28;20227;-86
2021/05/12 09:27:09;;;;;;;0.80;0.80;;;;;;;13.11;87.91;95061.88;5013824;28;20227;-86
2021/05/12 09:29:38;;;;;;;0.70;0.70;;;;;;;13.19;87.28;95065.28;5012778;28;20199;-85
2021/05/12 09:32:08;;;;;;;0.73;0.70;;;;;;;13.19;87.75;95060.91;5013016;28;20207;-86
2021/05/12 09:34:57;;;;;;;0.60;0.60;;;;;;;13.23;87.55;95062.09;5014233;28;20206;-86
2021/05/12 09:37:29;;;;;;;0.60;0.60;;;;;;;13.18;86.91;95066.28;5014194;28;20219;-86
2021/05/12 09:39:56;;;;;;;1.90;0.80;;;;;;;13.25;87.13;95065.25;5013105;28;20264;-86
2021/05/12 09:42:25;;;;;;;1.00;0.60;;;;;;;13.08;85.87;95071.84;5014168;28;20207;-86
2021/05/12 09:45:13;;;;;;;0.87;0.60;;;;;;;13.03;87.60;95071.66;5012976;28;20226;-86
2021/05/12 09:47:39;;;;;;;0.50;0.50;;;;;;;13.00;87.13;95067.69;5012705;28;20215;-85
2021/05/12 09:50:11;;;;;;;1.10;0.80;;;;;;;13.00;87.18;95066.91;5011875;28;20572;-85
2021/05/12 09:52:37;;;;;;;0.70;0.70;;;;;;;13.04;88.06;95068.88;5012914;28;20204;-83
2021/05/12 09:55:06;;;;;;;0.90;0.90;;;;;;;13.06;88.39;95068.69;5010884;28;20658;-84
2021/05/12 09:57:32;;;;;;;0.80;0.80;;;;;;;13.04;89.18;95070.66;5012188;28;20218;-85
2021/05/12 09:59:58;;;;;;;0.60;0.60;;;;;;;13.08;87.99;95067.44;4998949;28;20219;-85
2021/05/12 10:02:24;;;;;;;0.70;0.70;;;;;;;13.05;88.39;95060.13;4999512;28;20199;-84
2021/05/12 10:04:59;;;;;;;0.70;0.70;;;;;;;13.11;87.99;95061.88;5009745;28;20223;-85
2021/05/12 10:07:27;;;;;;;0.77;0.77;;;;;;;13.17;88.12;95056.94;4992595;28;20302;-85
2021/05/12 10:09:54;;;;;;;0.80;0.80;;;;;;;13.28;87.69;95057.06;4995091;28;20192;-84
2021/05/12 10:12:22;;;;;;;0.80;0.80;;;;;;;13.17;87.43;95055.13;5011920;28;20199;-85
2021/05/12 10:14:50;;;;;;;3.83;3.30;;;;;;;13.11;87.57;95048.94;5011004;28;20211;-85
2021/05/12 10:17:18;;;;;;;1.00;0.90;;;;;;;13.11;88.65;95056.72;5011451;28;20262;-84
2021/05/12 10:19:45;;;;;;;0.70;0.70;;;;;;;13.12;88.10;95049.75;5011374;28;20210;-85
2021/05/12 10:22:12;;;;;;;0.80;0.80;;;;;;;13.06;87.59;95060.94;5000825;28;20191;-85
2021/05/12 10:24:41;;;;;;;0.73;0.73;;;;;;;12.89;88.70;95057.22;4992156;28;20694;-85
2021/05/12 10:27:09;;;;;;;0.90;0.90;;;;;;;12.86;88.58;95052.44;4997799;28;20250;-84
2021/05/12 10:29:37;;;;;;;0.73;0.73;;;;;;;12.96;89.75;95055.38;5004564;28;20907;-83
2021/05/12 10:32:15;;;;;;;0.90;0.90;;;;;;;12.90;90.17;95053.59;5010182;28;20727;-85
2021/05/12 10:34:41;;;;;;;0.70;0.70;;;;;;;12.80;89.59;95057.41;5006624;28;20225;-83
2021/05/12 10:37:24;;;;;;;1.00;1.00;;;;;;;12.92;90.80;95062.75;4994491;28;20335;-84
2021/05/12 10:40:00;;;;;;;1.30;1.00;;;;;;;12.78;88.71;95049.06;5009712;28;20202;-84
2021/05/12 10:43:06;;;;;;;1.00;0.90;;;;;;;12.70;90.94;95054.44;4995636;28;20233;-84
2021/05/12 10:45:55;;;;;;;1.00;1.00;;;;;;;12.85;90.10;95059.41;4999783;28;20258;-85
2021/05/12 10:48:33;;;;;;;0.90;0.90;;;;;;;12.93;90.56;95073.88;4996776;28;20258;-85
2021/05/12 10:51:01;;;;;;;0.90;0.90;;;;;;;12.90;89.15;95071.69;5001695;28;20254;-85
2021/05/12 10:53:28;;;;;;;1.20;0.90;;;;;;;12.92;89.85;95078.25;5006393;28;20246;-85
2021/05/12 10:56:17;;;;;;;1.00;1.00;;;;;;;12.80;89.60;95069.53;5005621;28;20192;-85
2021/05/12 10:58:57;;;;;;;0.90;0.90;;;;;;;12.74;89.47;95071.13;5003305;28;20194;-85
2021/05/12 11:01:27;;;;;;;0.90;0.90;;;;;;;12.78;90.16;95067.16;5010191;28;20195;-85
2021/05/12 11:04:15;;;;;;;1.50;0.97;;;;;;;12.88;90.43;95066.75;5004010;28;20555;-85
2021/05/12 11:07:06;;;;;;;4.23;3.83;;;;;;;12.86;89.54;95065.38;5005635;28;20214;-84
2021/05/12 11:09:49;;;;;;;1.40;1.30;;;;;;;13.00;90.31;95056.56;5009842;28;20314;-85
2021/05/12 11:12:21;;;;;;;1.57;1.10;;;;;;;13.11;89.22;95055.91;4999246;28;20217;-85
2021/05/12 11:14:58;;;;;;;1.30;1.20;;;;;;;13.13;90.23;95056.50;5010577;28;20214;-85
2021/05/12 11:17:43;;;;;;;0.83;0.83;;;;;;;13.08;89.01;95053.75;5004799;28;20227;-85
2021/05/12 11:20:14;;;;;;;1.10;0.90;;;;;;;13.02;89.99;95059.75;4990960;28;20722;-85
2021/05/12 11:22:44;;;;;;;1.10;0.90;;;;;;;13.11;89.22;95051.53;5008945;28;20266;-85
2021/05/12 11:25:18;;;;;;;0.87;0.87;;;;;;;12.95;87.68;95046.03;5011466;28;20296;-85
2021/05/12 11:33:51;;;;;;;0.70;0.70;;;;;;;12.80;89.12;95047.09;5010580;28;20296;-85
2021/05/12 11:36:20;;;;;;;0.90;0.90;;;;;;;12.83;89.90;95053.63;5014427;28;20203;-84
2021/05/12 11:38:47;;;;;;;1.03;0.90;;;;;;;12.86;89.55;95044.69;5006225;28;20262;-84
2021/05/12 11:41:16;;;;;;;1.03;1.00;;;;;;;12.83;90.39;95050.25;4997832;28;20211;-85
2021/05/12 11:43:45;;;;;;;1.10;1.00;;;;;;;12.77;88.87;95044.91;5003089;28;20196;-85